Time;durP1;ratioP1;P1;durP2;ratioP2;P2;SDS_P1;SDS_P2;PMS_P1;PMS_P2;Temp;Humidity;BMP_temperature;BMP_pressure;BME280_temperature;BME280_humidity;BME280_pressure;Samples;Min_cycle;Max_cycle;Signal;HPM_P1;HPM_P2
2022/07/06 00:03:18;;;;;;;3.17;1.50;;;;;;;13.79;100.00;102339.41;10343207;28;20034;-64
2022/07/06 00:08:18;;;;;;;6.30;1.48;;;;;;;13.80;100.00;102356.84;10367446;28;20456;-63
2022/07/06 00:13:19;;;;;;;7.53;1.05;;;;;;;13.78;100.00;102348.78;10369752;28;20033;-64
2022/07/06 00:18:19;;;;;;;4.55;1.10;;;;;;;13.83;100.00;102362.75;10371293;28;20038;-64
2022/07/06 00:23:20;;;;;;;4.53;1.02;;;;;;;13.79;100.00;102375.38;10382946;28;20045;-65
2022/07/06 00:28:20;;;;;;;3.72;1.17;;;;;;;13.80;100.00;102374.28;10368396;28;20038;-64
2022/07/06 00:33:21;;;;;;;3.42;1.50;;;;;;;13.82;100.00;102366.59;10368617;28;20049;-65
2022/07/06 00:38:21;;;;;;;3.78;0.90;;;;;;;13.82;100.00;102366.59;10383356;28;20049;-64
2022/07/06 00:43:22;;;;;;;8.10;1.70;;;;;;;13.85;100.00;102360.59;10369683;28;20041;-64
2022/07/06 00:48:22;;;;;;;6.97;0.93;;;;;;;13.86;100.00;102355.88;10352896;28;20045;-63
2022/07/06 00:53:23;;;;;;;5.32;0.52;;;;;;;13.86;100.00;102351.19;10329991;28;20042;-62
2022/07/06 00:58:23;;;;;;;3.53;0.50;;;;;;;13.86;100.00;102351.19;10327067;28;20046;-63
2022/07/06 01:03:23;;;;;;;1.48;0.40;;;;;;;13.79;100.00;102344.94;10324953;28;20065;-65
2022/07/06 01:08:24;;;;;;;1.63;0.60;;;;;;;13.77;100.00;102340.72;10352055;28;20030;-65
2022/07/06 01:13:25;;;;;;;6.57;0.50;;;;;;;13.71;100.00;102343.34;10367408;28;20038;-64
2022/07/06 01:18:25;;;;;;;2.97;0.55;;;;;;;13.68;100.00;102343.84;10399659;28;20459;-64
2022/07/06 01:23:26;;;;;;;2.30;0.57;;;;;;;13.65;100.00;102349.00;10367575;28;20041;-65
2022/07/06 01:28:26;;;;;;;2.92;0.57;;;;;;;13.36;100.00;102299.03;10366548;28;20046;-66
2022/07/06 01:33:27;;;;;;;2.95;1.42;;;;;;;13.56;100.00;102333.81;10396400;28;20046;-62
2022/07/06 01:38:27;;;;;;;6.63;0.80;;;;;;;13.41;100.00;102326.00;10365235;28;22722;-65
2022/07/06 01:43:28;;;;;;;1.48;0.70;;;;;;;13.42;100.00;102327.69;10366195;28;20413;-64
2022/07/06 01:48:28;;;;;;;6.53;0.88;;;;;;;13.36;100.00;102328.66;10367162;28;20096;-64
2022/07/06 01:53:29;;;;;;;1.88;0.68;;;;;;;13.30;100.00;102333.19;10364395;28;20045;-64
2022/07/06 01:58:29;;;;;;;1.85;0.50;;;;;;;13.27;100.00;102333.63;10364181;28;20045;-65
2022/07/06 02:03:30;;;;;;;5.13;1.10;;;;;;;13.28;100.00;102338.91;10365085;28;20045;-65
2022/07/06 02:08:30;;;;;;;5.55;0.88;;;;;;;13.36;100.00;102340.53;10364629;28;20046;-64
2022/07/06 02:13:30;;;;;;;4.20;0.80;;;;;;;13.36;100.00;102332.25;10365219;28;20042;-65
2022/07/06 02:18:31;;;;;;;4.53;1.00;;;;;;;13.37;100.00;102346.91;10378264;28;20046;-65
2022/07/06 02:23:31;;;;;;;4.55;1.00;;;;;;;13.42;100.00;102339.59;10324116;28;20108;-65
2022/07/06 02:28:32;;;;;;;9.70;1.17;;;;;;;13.43;100.00;102341.25;10324169;28;20053;-64
2022/07/06 02:33:32;;;;;;;7.65;1.20;;;;;;;13.42;100.00;102345.13;10323617;28;20089;-64
2022/07/06 02:38:33;;;;;;;6.72;1.30;;;;;;;13.45;100.00;102339.09;10323084;28;20487;-65
2022/07/06 02:43:33;;;;;;;3.65;0.75;;;;;;;13.45;100.00;102327.19;10375300;28;20045;-64
2022/07/06 02:48:34;;;;;;;4.55;1.05;;;;;;;13.46;100.00;102335.28;10364874;28;20042;-64
2022/07/06 02:53:34;;;;;;;4.60;0.98;;;;;;;13.48;100.00;102332.28;10325548;28;20057;-65
2022/07/06 02:58:35;;;;;;;1.77;0.90;;;;;;;13.45;100.00;102333.56;10323018;28;20034;-64
2022/07/06 03:03:35;;;;;;;6.43;1.25;;;;;;;13.41;100.00;102340.66;10337415;28;20035;-65
2022/07/06 03:08:36;;;;;;;3.83;1.00;;;;;;;13.34;100.00;102339.09;10353678;28;20035;-64
2022/07/06 03:13:36;;;;;;;5.75;1.20;;;;;;;13.17;100.00;102336.13;10322602;28;20051;-65
2022/07/06 03:18:37;;;;;;;3.45;1.23;;;;;;;12.95;100.00;102344.94;10336351;28;20049;-64
2022/07/06 03:23:37;;;;;;;4.95;1.00;;;;;;;12.80;100.00;102363.88;10363003;28;20037;-65
2022/07/06 03:28:37;;;;;;;4.47;1.73;;;;;;;12.65;100.00;102370.66;10362508;28;20050;-64
2022/07/06 03:33:38;;;;;;;5.00;1.05;;;;;;;12.49;100.00;102366.59;10360873;28;20077;-64
2022/07/06 03:38:39;;;;;;;3.10;2.13;;;;;;;12.39;100.00;102363.53;10393556;28;20129;-65
2022/07/06 03:43:39;;;;;;;2.35;1.23;;;;;;;12.27;100.00;102366.19;10341178;28;20043;-63
2022/07/06 03:48:39;;;;;;;6.30;1.33;;;;;;;12.21;100.00;102361.59;10322808;28;20128;-64
2022/07/06 03:53:40;;;;;;;5.18;1.17;;;;;;;12.13;100.00;102352.75;10351948;28;20515;-65
2022/07/06 03:58:41;;;;;;;5.30;1.27;;;;;;;12.05;100.00;102362.19;10321722;28;20034;-65
2022/07/06 04:03:41;;;;;;;8.13;1.63;;;;;;;12.02;100.00;102362.66;10336542;28;20034;-64
2022/07/06 04:08:42;;;;;;;5.88;1.58;;;;;;;11.96;100.00;102363.56;10320665;28;20042;-64
2022/07/06 04:13:42;;;;;;;5.70;1.95;;;;;;;11.93;100.00;102366.75;10322582;28;20045;-64
2022/07/06 04:18:43;;;;;;;4.57;1.88;;;;;;;11.84;100.00;102355.97;10322052;28;20054;-65
2022/07/06 04:23:43;;;;;;;10.30;1.90;;;;;;;11.90;100.00;102359.78;10320869;28;20034;-64
2022/07/06 04:28:43;;;;;;;5.65;1.55;;;;;;;11.91;100.00;102362.31;10321422;28;20043;-64
2022/07/06 04:33:44;;;;;;;7.25;1.90;;;;;;;11.92;100.00;102371.44;10327668;28;20074;-64
2022/07/06 04:38:47;;;;;;;7.18;2.33;;;;;;;11.95;100.00;102359.09;10358859;28;20057;-64
2022/07/06 04:43:48;;;;;;;8.90;1.98;;;;;;;12.02;100.00;102355.19;10358973;28;20039;-64
2022/07/06 04:48:49;;;;;;;8.13;1.98;;;;;;;12.16;100.00;102371.66;10328395;28;20030;-64
2022/07/06 04:53:49;;;;;;;5.78;1.73;;;;;;;12.22;100.00;102366.06;10355451;28;20046;-64
2022/07/06 04:58:50;;;;;;;6.35;1.75;;;;;;;12.23;100.00;102356.69;10367392;28;20034;-63
2022/07/06 05:03:50;;;;;;;7.25;2.08;;;;;;;12.43;100.00;102369.44;10367669;28;20050;-64
2022/07/06 05:08:51;;;;;;;8.57;2.97;;;;;;;12.70;100.00;102370.78;10326241;28;20034;-64
2022/07/06 05:13:51;;;;;;;7.03;1.90;;;;;;;13.01;100.00;102368.06;10358705;28;20031;-64
2022/07/06 05:18:52;;;;;;;6.50;1.92;;;;;;;13.28;100.00;102380.41;10356244;28;20069;-64
2022/07/06 05:23:52;;;;;;;6.93;1.55;;;;;;;13.51;100.00;102387.94;10366372;28;20037;-65
2022/07/06 05:28:53;;;;;;;4.32;1.23;;;;;;;13.70;100.00;102369.38;10363939;28;20061;-64
2022/07/06 05:33:54;;;;;;;4.70;0.95;;;;;;;13.87;100.00;102363.94;10397734;28;20045;-64
2022/07/06 05:38:54;;;;;;;5.80;0.70;;;;;;;13.93;100.00;102365.75;10397527;28;20034;-64
2022/07/06 05:43:55;;;;;;;4.35;0.80;;;;;;;14.08;100.00;102364.44;10325338;28;20042;-64
2022/07/06 05:54:14;;;;;;;2.30;0.90;;;;;;;14.35;100.00;102353.69;10324825;28;20098;-63
2022/07/06 05:59:15;;;;;;;3.40;0.40;;;;;;;14.29;100.00;102333.31;10323457;28;20039;-64
2022/07/06 06:04:15;;;;;;;6.30;0.47;;;;;;;14.64;100.00;102351.84;10324646;28;20039;-65
2022/07/06 06:09:16;;;;;;;3.63;0.88;;;;;;;14.91;100.00;102354.88;10324661;28;20041;-64
2022/07/06 06:14:16;;;;;;;2.70;0.40;;;;;;;15.08;100.00;102363.22;10325771;28;20043;-64
2022/07/06 06:19:17;;;;;;;3.70;0.52;;;;;;;15.26;100.00;102358.56;10325062;28;20041;-64
2022/07/06 06:24:17;;;;;;;4.00;0.47;;;;;;;15.53;100.00;102365.16;10340514;28;20352;-64
2022/07/06 06:29:18;;;;;;;1.13;0.30;;;;;;;15.54;100.00;102354.88;10364330;28;20336;-65
2022/07/06 06:34:18;;;;;;;2.25;0.30;;;;;;;15.68;100.00;102372.06;10364403;28;20521;-65
2022/07/06 06:39:19;;;;;;;3.83;0.65;;;;;;;15.65;100.00;102367.03;10376729;28;20050;-62
2022/07/06 06:44:22;;;;;;;3.75;0.57;;;;;;;15.79;100.00;102385.03;10377465;28;21181;-64
2022/07/06 06:49:23;;;;;;;2.03;0.43;;;;;;;15.99;100.00;102392.03;10377974;28;20061;-65
2022/07/06 06:54:23;;;;;;;3.17;0.70;;;;;;;15.73;100.00;102397.19;10355034;28;20065;-65
2022/07/06 06:59:24;;;;;;;4.13;0.82;;;;;;;15.52;100.00;102398.69;10321787;28;20042;-65
2022/07/06 07:04:24;;;;;;;3.30;1.38;;;;;;;15.26;100.00;102375.22;10374609;28;20050;-65
2022/07/06 07:09:25;;;;;;;3.58;0.60;;;;;;;15.47;100.00;102415.28;10377204;28;20054;-64
2022/07/06 07:14:27;;;;;;;2.60;0.70;;;;;;;15.32;100.00;102413.91;10369746;28;20052;-65
2022/07/06 07:19:28;;;;;;;3.88;0.50;;;;;;;15.28;100.00;102407.16;10362097;28;20049;-65
2022/07/06 07:24:28;;;;;;;4.05;0.60;;;;;;;15.37;100.00;102428.97;10393401;28;20038;-66
2022/07/06 07:29:28;;;;;;;3.28;0.52;;;;;;;15.28;100.00;102426.59;10362411;28;20045;-66
2022/07/06 07:34:29;;;;;;;6.82;0.70;;;;;;;15.43;100.00;102420.47;10362988;28;20073;-65
2022/07/06 07:39:29;;;;;;;5.00;0.88;;;;;;;15.40;100.00;102418.22;10363905;28;20084;-65
2022/07/06 07:44:30;;;;;;;6.53;0.73;;;;;;;15.51;100.00;102422.00;10363976;28;20058;-61
2022/07/06 07:49:30;;;;;;;6.15;0.70;;;;;;;15.40;100.00;102415.44;10362982;28;21332;-65
2022/07/06 07:54:31;;;;;;;6.80;0.80;;;;;;;15.90;100.00;102403.56;10359316;28;20055;-65
2022/07/06 07:59:31;;;;;;;3.97;0.77;;;;;;;16.60;100.00;102405.94;10361922;28;20038;-66
2022/07/06 08:04:32;;;;;;;3.03;0.60;;;;;;;16.93;100.00;102393.91;10369894;28;20037;-65
2022/07/06 08:09:32;;;;;;;3.63;0.90;;;;;;;17.15;100.00;102393.84;10388672;28;20038;-65
2022/07/06 08:14:34;;;;;;;5.65;0.70;;;;;;;18.13;100.00;102387.25;10408582;28;20051;-65
2022/07/06 08:19:34;;;;;;;0.93;0.40;;;;;;;18.81;100.00;102372.53;10410304;28;20057;-65
2022/07/06 08:24:35;;;;;;;3.50;0.35;;;;;;;18.84;100.00;102372.84;10361735;28;20034;-65
2022/07/06 08:29:35;;;;;;;2.63;0.40;;;;;;;18.20;97.82;102368.31;10340892;28;20038;-64
2022/07/06 08:34:36;;;;;;;2.47;0.30;;;;;;;18.11;97.80;102376.34;10328136;28;20030;-65
2022/07/06 08:39:36;;;;;;;3.63;0.40;;;;;;;18.44;98.45;102384.59;10331345;28;20109;-66
2022/07/06 08:44:37;;;;;;;4.45;0.60;;;;;;;18.51;96.76;102379.63;10369472;28;20053;-65
2022/07/06 08:49:38;;;;;;;1.95;0.40;;;;;;;18.60;98.00;102377.16;10327017;28;20042;-65
2022/07/06 08:54:38;;;;;;;2.97;0.50;;;;;;;18.33;97.19;102375.34;10331070;28;20050;-65
2022/07/06 08:59:39;;;;;;;3.47;0.70;;;;;;;18.14;98.56;102375.81;10339808;28;20132;-65
2022/07/06 09:04:40;;;;;;;4.88;0.60;;;;;;;18.43;98.14;102371.78;10327085;28;20085;-65
2022/07/06 09:09:40;;;;;;;3.83;0.40;;;;;;;18.75;91.80;102358.53;10342769;28;20030;-64
2022/07/06 09:14:41;;;;;;;3.90;0.60;;;;;;;19.00;89.27;102348.59;10341565;28;20045;-65
2022/07/06 09:19:41;;;;;;;2.30;0.40;;;;;;;19.21;87.03;102354.22;10326320;28;20086;-65
2022/07/06 09:24:42;;;;;;;3.58;0.30;;;;;;;19.30;87.24;102366.50;10340998;28;20065;-65
2022/07/06 09:29:43;;;;;;;1.80;0.28;;;;;;;19.31;80.46;102359.84;10356455;28;20038;-64
2022/07/06 09:34:44;;;;;;;2.55;0.10;;;;;;;19.40;79.44;102360.94;10341131;28;20176;-65
2022/07/06 09:39:45;;;;;;;4.78;0.50;;;;;;;19.50;80.55;102362.91;10326991;28;20473;-64
2022/07/06 09:44:45;;;;;;;4.97;0.40;;;;;;;19.33;81.47;102365.97;10325878;28;20034;-65
2022/07/06 09:49:47;;;;;;;2.60;0.70;;;;;;;19.46;78.46;102351.44;10339643;28;20030;-62
2022/07/06 09:54:48;;;;;;;2.58;0.40;;;;;;;19.66;80.14;102350.63;10323344;28;20038;-66
2022/07/06 09:59:50;;;;;;;2.40;0.20;;;;;;;19.75;80.01;102359.31;10355498;28;20046;-63
2022/07/06 10:04:52;;;;;;;3.25;0.32;;;;;;;19.84;75.60;102334.41;10323979;28;20065;-65
2022/07/06 10:09:53;;;;;;;4.50;1.15;;;;;;;20.26;76.06;102341.63;10324863;28;20494;-64
2022/07/06 10:14:53;;;;;;;2.33;0.40;;;;;;;20.32;77.42;102352.50;10319697;28;20043;-65
2022/07/06 10:19:55;;;;;;;0.85;0.35;;;;;;;20.32;78.39;102360.88;10299365;28;20522;-65
2022/07/06 10:24:57;;;;;;;1.73;0.30;;;;;;;19.95;76.35;102303.38;10315496;28;20090;-65
2022/07/06 10:29:58;;;;;;;2.67;0.40;;;;;;;19.51;77.81;102353.41;10356715;28;20105;-65
2022/07/06 10:34:58;;;;;;;2.53;0.60;;;;;;;19.24;80.89;102364.81;10362713;28;20069;-65
2022/07/06 10:45:27;;;;;;;1.55;0.25;;;;;;;19.91;83.71;102357.34;10350917;28;20054;-68
2022/07/06 10:50:34;;;;;;;2.88;0.40;;;;;;;20.59;80.00;102345.72;10284326;28;20514;-65
2022/07/06 10:55:35;;;;;;;5.65;0.50;;;;;;;20.65;78.39;102327.78;10313440;28;20046;-65
2022/07/06 11:00:52;;;;;;;4.63;0.50;;;;;;;20.63;78.94;102340.34;10338224;28;20038;-65
2022/07/06 11:05:57;;;;;;;;;;;;;;;20.73;78.35;102335.56;10315522;28;20511;-65
2022/07/06 11:10:58;;;;;;;1.45;0.50;;;;;;;20.91;78.14;102333.22;10322818;28;19929;-65
2022/07/06 11:16:05;;;;;;;1.45;0.32;;;;;;;20.56;77.81;102335.03;10319847;28;20065;-65
2022/07/06 11:21:22;;;;;;;4.97;0.95;;;;;;;21.26;77.07;102325.72;10359269;28;20046;-65
2022/07/06 11:26:22;;;;;;;3.45;0.40;;;;;;;21.85;75.34;102319.06;10357600;28;20131;-65
2022/07/06 11:31:23;;;;;;;5.15;0.93;;;;;;;21.41;75.06;102305.97;10337662;28;20046;-66
2022/07/06 11:36:23;;;;;;;1.88;0.60;;;;;;;21.33;76.46;102315.00;10322051;28;20102;-65
2022/07/06 11:41:24;;;;;;;4.63;0.70;;;;;;;21.74;72.41;102298.69;10323725;28;20030;-67
2022/07/06 11:46:33;;;;;;;3.33;0.73;;;;;;;21.85;68.62;102271.41;10356651;28;20038;-65
2022/07/06 11:51:35;;;;;;;3.72;1.00;;;;;;;22.60;71.49;102286.78;10412213;28;20037;-66
2022/07/06 11:56:35;;;;;;;3.13;0.40;;;;;;;22.92;67.43;102262.72;10411076;28;20049;-66
2022/07/06 12:01:41;;;;;;;5.97;0.70;;;;;;;22.50;68.97;102253.22;10398512;28;20125;-66
2022/07/06 12:06:43;;;;;;;6.72;0.68;;;;;;;21.84;68.86;102260.47;10371310;28;20580;-66
2022/07/06 12:11:46;;;;;;;3.03;0.50;;;;;;;21.16;72.68;102285.44;10370463;28;20038;-66
2022/07/06 12:16:47;;;;;;;2.33;0.60;;;;;;;20.45;75.13;102294.25;10396335;28;20061;-68
2022/07/06 12:21:49;;;;;;;3.15;0.38;;;;;;;20.54;76.80;102293.34;10395636;28;20053;-67
2022/07/06 12:26:51;;;;;;;2.88;0.60;;;;;;;22.38;69.85;102261.25;10374674;28;20046;-66
2022/07/06 12:31:53;;;;;;;2.03;0.70;;;;;;;23.91;63.78;102241.88;10400294;28;20048;-66
2022/07/06 12:36:54;;;;;;;5.25;1.60;;;;;;;23.09;66.84;102253.75;10329396;28;20090;-67
2022/07/06 12:41:58;;;;;;;5.15;0.52;;;;;;;21.76;69.38;102257.16;10328104;28;20042;-68
2022/07/06 12:47:03;;;;;;;2.03;0.70;;;;;;;22.41;69.84;102249.41;10306021;28;20043;-66
2022/07/06 12:52:06;;;;;;;4.07;0.50;;;;;;;24.09;65.92;102220.44;10329606;28;20046;-66
2022/07/06 12:57:26;;;;;;;2.08;0.57;;;;;;;23.52;62.81;102217.91;10336979;28;20034;-66
2022/07/06 13:02:31;;;;;;;6.30;0.60;;;;;;;23.17;63.56;102196.88;10368721;28;20037;-67
2022/07/06 13:07:35;;;;;;;2.33;0.40;;;;;;;24.07;62.16;102202.19;10366689;28;20042;-65
2022/07/06 13:12:35;;;;;;;3.35;0.40;;;;;;;24.33;61.55;102196.81;10368663;28;20074;-67
2022/07/06 13:17:39;;;;;;;2.00;0.40;;;;;;;24.04;60.00;102188.75;10367105;28;20516;-65
2022/07/06 13:22:39;;;;;;;2.58;0.43;;;;;;;22.61;61.33;102207.03;10381978;28;20034;-67
2022/07/06 13:27:40;;;;;;;3.95;0.40;;;;;;;21.66;66.40;102239.63;10357565;28;20106;-66
2022/07/06 13:32:41;;;;;;;1.77;0.40;;;;;;;20.93;66.76;102233.00;10326071;28;20047;-67
2022/07/06 13:37:41;;;;;;;3.03;0.60;;;;;;;20.95;68.47;102230.72;10326431;28;20058;-66
2022/07/06 13:42:42;;;;;;;4.93;0.73;;;;;;;21.47;69.90;102217.13;10326323;28;20045;-67
2022/07/06 13:47:42;;;;;;;2.92;0.40;;;;;;;21.58;69.31;102215.06;10356883;28;20042;-65
2022/07/06 13:52:43;;;;;;;2.33;0.98;;;;;;;20.98;70.73;102216.16;10326523;28;20049;-65
2022/07/06 13:57:45;;;;;;;2.80;0.50;;;;;;;21.11;71.51;102218.28;10345200;28;20088;-66
2022/07/06 14:02:45;;;;;;;3.00;1.00;;;;;;;21.00;71.56;102222.31;10364170;28;20038;-65
2022/07/06 14:07:46;;;;;;;3.15;0.50;;;;;;;;;;10347357;28;20085;-65
2022/07/06 14:12:46;;;;;;;2.33;0.47;;;;;;;20.58;70.69;102209.72;10365030;28;20064;-65
2022/07/06 14:17:47;;;;;;;3.97;0.63;;;;;;;20.27;69.65;102200.66;10365723;28;20290;-64
2022/07/06 14:22:47;;;;;;;2.33;0.50;;;;;;;20.06;73.15;102230.66;10325511;28;22221;-67
2022/07/06 14:27:48;;;;;;;1.95;0.55;;;;;;;19.69;70.55;102193.59;10349475;28;20502;-66
2022/07/06 14:32:48;;;;;;;1.35;0.60;;;;;;;19.43;74.46;102217.09;10372056;28;20430;-67
2022/07/06 14:37:49;;;;;;;1.10;0.50;;;;;;;19.26;76.37;102223.81;10364811;28;20442;-66
2022/07/06 14:42:49;;;;;;;3.25;0.68;;;;;;;19.32;76.56;102221.88;10394594;28;20038;-66
2022/07/06 14:47:50;;;;;;;2.63;0.57;;;;;;;19.25;76.37;102210.16;10364825;28;20034;-66
2022/07/06 14:52:51;;;;;;;3.97;0.60;;;;;;;19.25;75.57;102208.22;10364497;28;20068;-66
2022/07/06 14:57:51;;;;;;;5.68;0.60;;;;;;;19.25;78.46;102210.16;10362934;28;20053;-67
2022/07/06 15:02:52;;;;;;;2.53;0.75;;;;;;;19.05;75.67;102197.06;10362792;28;20045;-67
2022/07/06 15:07:52;;;;;;;1.90;0.70;;;;;;;18.80;77.46;102214.63;10393694;28;20038;-66
2022/07/06 15:12:53;;;;;;;2.63;0.60;;;;;;;18.70;79.28;102207.03;10363330;28;20586;-66
2022/07/06 15:17:53;;;;;;;3.72;0.65;;;;;;;18.71;79.01;102201.19;10364948;28;20045;-67
2022/07/06 15:22:54;;;;;;;1.88;0.65;;;;;;;18.66;80.03;102198.38;10366920;28;20045;-66
2022/07/06 15:27:54;;;;;;;1.95;0.52;;;;;;;18.66;80.08;102194.75;10336401;28;20043;-66
2022/07/06 15:32:55;;;;;;;1.48;0.50;;;;;;;18.69;80.23;102194.22;10321046;28;20050;-66
2022/07/06 15:37:55;;;;;;;2.40;0.80;;;;;;;18.55;81.89;102197.53;10322314;28;20046;-67
2022/07/06 15:42:56;;;;;;;6.78;4.15;;;;;;;18.30;83.48;102150.91;10322512;28;20035;-66
2022/07/06 15:47:56;;;;;;;3.22;1.02;;;;;;;18.48;84.32;102185.81;10365451;28;20034;-65
2022/07/06 15:52:56;;;;;;;4.00;0.70;;;;;;;18.28;86.04;102192.19;10330067;28;20038;-67
2022/07/06 15:57:57;;;;;;;2.70;1.08;;;;;;;17.92;94.10;102206.00;10319058;28;20034;-67
2022/07/06 16:02:58;;;;;;;2.22;1.38;;;;;;;17.65;100.00;102227.53;10325607;28;20050;-68
2022/07/06 16:07:58;;;;;;;4.82;1.40;;;;;;;17.29;100.00;102216.16;10321444;28;20051;-66
2022/07/06 16:12:59;;;;;;;3.15;1.60;;;;;;;17.18;100.00;102211.59;10385925;28;20029;-67
2022/07/06 16:17:59;;;;;;;6.50;2.10;;;;;;;16.97;100.00;102211.47;10380905;28;20057;-65
2022/07/06 16:23:00;;;;;;;6.25;1.90;;;;;;;16.98;100.00;102195.59;10370722;28;20053;-66
2022/07/06 16:28:00;;;;;;;8.77;1.55;;;;;;;16.90;100.00;102191.34;10368586;28;20034;-66
2022/07/06 16:33:01;;;;;;;7.05;2.20;;;;;;;16.90;100.00;102171.88;10357707;28;20080;-66
2022/07/06 16:38:01;;;;;;;3.97;1.90;;;;;;;16.83;100.00;102165.72;10343655;28;20049;-67
2022/07/06 16:43:02;;;;;;;3.80;1.45;;;;;;;16.67;100.00;102162.75;10347396;28;20065;-66
2022/07/06 16:48:03;;;;;;;2.30;1.77;;;;;;;16.58;100.00;102167.13;10344973;28;20038;-66
2022/07/06 16:53:03;;;;;;;8.38;1.80;;;;;;;16.34;100.00;102164.66;10342800;28;20057;-68
2022/07/06 16:58:04;;;;;;;5.18;1.27;;;;;;;16.13;100.00;102158.03;10330462;28;20069;-66
2022/07/06 17:03:04;;;;;;;5.35;2.05;;;;;;;16.10;100.00;102146.59;10362741;28;20034;-66
2022/07/06 17:08:05;;;;;;;4.60;1.90;;;;;;;15.84;100.00;102143.53;10312655;28;20039;-70
2022/07/06 17:13:06;;;;;;;7.25;2.45;;;;;;;15.66;100.00;102141.03;10322278;28;20050;-66
2022/07/06 17:18:06;;;;;;;4.15;2.22;;;;;;;15.61;100.00;102143.78;10327707;28;20046;-65
2022/07/06 17:23:07;;;;;;;4.40;2.22;;;;;;;15.44;100.00;102119.69;10325255;28;20045;-67
2022/07/06 17:28:07;;;;;;;6.03;2.33;;;;;;;15.46;100.00;102120.25;10339631;28;20034;-67
2022/07/06 17:33:09;;;;;;;6.45;3.10;;;;;;;14.83;100.00;102032.81;10325090;28;20040;-67
2022/07/06 17:38:09;;;;;;;6.90;2.85;;;;;;;15.43;100.00;102126.31;10318334;28;20062;-69
2022/07/06 17:43:10;;;;;;;5.32;3.15;;;;;;;15.47;100.00;102124.69;10318031;28;20070;-69
2022/07/06 17:48:11;;;;;;;7.00;2.80;;;;;;;15.41;100.00;102117.41;10284991;28;20460;-66
2022/07/06 17:53:11;;;;;;;8.18;4.07;;;;;;;15.41;100.00;102119.34;10286291;28;20050;-68
2022/07/06 17:58:14;;;;;;;9.55;4.15;;;;;;;15.32;100.00;102113.41;10315697;28;20093;-68
2022/07/06 18:03:14;;;;;;;6.45;3.28;;;;;;;15.25;100.00;102109.97;10318947;28;20125;-69
2022/07/06 18:08:15;;;;;;;4.85;3.20;;;;;;;15.10;100.00;102094.78;10323130;28;20050;-68
2022/07/06 18:13:16;;;;;;;6.78;4.05;;;;;;;15.00;100.00;102093.78;10341113;28;20047;-68
2022/07/06 18:18:16;;;;;;;10.77;4.43;;;;;;;14.95;100.00;102074.31;10284544;28;20038;-68
2022/07/06 18:23:16;;;;;;;8.82;4.55;;;;;;;14.90;100.00;102080.59;10307935;28;20590;-66
2022/07/06 18:28:17;;;;;;;7.50;4.45;;;;;;;14.89;100.00;102071.44;10322895;28;20036;-65
2022/07/06 18:33:18;;;;;;;14.48;6.90;;;;;;;14.91;100.00;102071.19;10324122;28;20077;-66
2022/07/06 18:38:18;;;;;;;7.25;6.22;;;;;;;15.02;100.00;102058.31;10344185;28;20190;-66
2022/07/06 18:43:19;;;;;;;8.85;6.03;;;;;;;15.01;100.00;102063.03;10368715;28;20065;-66
2022/07/06 18:48:20;;;;;;;13.15;6.80;;;;;;;14.99;100.00;102054.13;10323497;28;20101;-68
2022/07/06 18:53:21;;;;;;;12.38;7.28;;;;;;;14.91;100.00;102052.63;10322278;28;20069;-69
2022/07/06 18:58:22;;;;;;;13.13;7.28;;;;;;;14.62;100.00;101996.47;10322022;28;20042;-69
2022/07/06 19:03:23;;;;;;;14.73;8.02;;;;;;;14.86;100.00;102032.28;10353182;28;20038;-68
2022/07/06 19:08:23;;;;;;;11.73;7.57;;;;;;;14.77;100.00;102028.28;10321643;28;20034;-69
2022/07/06 19:13:23;;;;;;;17.50;9.43;;;;;;;14.78;100.00;102036.34;10323526;28;20061;-68
2022/07/06 19:18:24;;;;;;;18.98;10.63;;;;;;;14.77;100.00;102029.13;10304571;28;20037;-69
2022/07/06 19:23:24;;;;;;;20.90;14.77;;;;;;;14.71;100.00;102019.88;10307318;28;20038;-69
2022/07/06 19:28:25;;;;;;;24.58;18.25;;;;;;;14.81;100.00;102021.13;10307971;28;20058;-68
2022/07/06 19:33:27;;;;;;;26.40;17.00;;;;;;;14.84;100.00;102023.38;10310520;28;20044;-68
2022/07/06 19:38:28;;;;;;;25.60;15.55;;;;;;;14.80;100.00;102022.22;10309938;28;20058;-67
2022/07/06 19:43:29;;;;;;;22.15;15.30;;;;;;;14.82;100.00;102014.47;10320544;28;20049;-68
2022/07/06 19:48:29;;;;;;;26.42;15.90;;;;;;;14.81;100.00;102008.09;10322597;28;20038;-69
2022/07/06 19:53:30;;;;;;;24.58;14.98;;;;;;;14.80;100.00;102009.22;10319711;28;20069;-68
2022/07/06 19:58:31;;;;;;;20.88;15.27;;;;;;;14.88;100.00;102008.78;10320815;28;20438;-68
2022/07/06 20:03:31;;;;;;;25.05;16.20;;;;;;;14.93;100.00;102005.22;10328207;28;20035;-68
2022/07/06 20:08:32;;;;;;;29.83;17.02;;;;;;;14.96;100.00;102007.47;10326253;28;20524;-68
2022/07/06 20:13:32;;;;;;;36.45;19.00;;;;;;;15.02;100.00;102003.69;10328199;28;20041;-68
2022/07/06 20:18:33;;;;;;;32.80;18.67;;;;;;;15.02;100.00;102000.91;10329524;28;20039;-67
2022/07/06 20:23:33;;;;;;;28.77;18.23;;;;;;;15.02;100.00;101998.13;10327697;28;20050;-67
2022/07/06 20:28:34;;;;;;;31.10;19.08;;;;;;;15.05;100.00;101986.53;10328590;28;20061;-68
2022/07/06 20:33:35;;;;;;;33.03;19.08;;;;;;;15.09;100.00;101984.94;10326958;28;20054;-67
2022/07/06 20:38:35;;;;;;;36.45;19.55;;;;;;;15.12;100.00;101981.63;10327963;28;20054;-68
2022/07/06 20:43:35;;;;;;;36.67;18.10;;;;;;;15.10;100.00;101978.28;10328524;28;20085;-67
2022/07/06 20:48:36;;;;;;;40.72;20.33;;;;;;;15.13;100.00;101980.56;10327332;28;20045;-68
2022/07/06 20:53:36;;;;;;;36.90;19.70;;;;;;;15.12;100.00;101984.41;10356789;28;20065;-68
2022/07/06 20:58:37;;;;;;;39.78;20.55;;;;;;;15.16;100.00;101970.03;10339643;28;20034;-68
2022/07/06 21:03:37;;;;;;;34.97;18.92;;;;;;;15.17;100.00;101960.59;10325314;28;20422;-67
2022/07/06 21:08:38;;;;;;;40.78;19.30;;;;;;;15.21;100.00;101961.75;10330568;28;20038;-68
2022/07/06 21:13:39;;;;;;;34.28;19.05;;;;;;;15.24;100.00;101952.94;10322855;28;20170;-67
2022/07/06 21:18:39;;;;;;;42.75;20.30;;;;;;;15.23;100.00;101938.19;10344288;28;20045;-67
2022/07/06 21:23:40;;;;;;;42.67;20.45;;;;;;;15.26;100.00;101936.88;10363009;28;20068;-67
2022/07/06 21:28:40;;;;;;;42.35;21.88;;;;;;;15.27;100.00;101938.53;10362825;28;20439;-67
2022/07/06 21:33:41;;;;;;;42.60;22.00;;;;;;;15.29;100.00;101934.38;10375939;28;20100;-67
2022/07/06 21:38:42;;;;;;;44.47;21.15;;;;;;;15.28;100.00;101934.66;10321470;28;20093;-65
2022/07/06 21:43:42;;;;;;;35.00;20.38;;;;;;;15.29;100.00;101937.16;10325919;28;20046;-67
2022/07/06 21:48:43;;;;;;;41.25;20.30;;;;;;;15.22;100.00;101908.81;10346517;28;20108;-67
2022/07/06 21:53:43;;;;;;;39.25;19.70;;;;;;;15.36;100.00;101917.56;10322032;28;20045;-68
2022/07/06 21:58:44;;;;;;;40.00;21.35;;;;;;;15.33;100.00;101905.03;10311675;28;20130;-67
2022/07/06 22:03:44;;;;;;;37.17;20.13;;;;;;;15.32;100.00;101896.97;10315420;28;20046;-65
2022/07/06 22:08:45;;;;;;;36.65;19.92;;;;;;;15.31;100.00;101887.81;10320150;28;20038;-66
2022/07/06 22:13:46;;;;;;;34.15;19.65;;;;;;;15.34;100.00;101883.69;10322515;28;20042;-66
2022/07/06 22:18:47;;;;;;;38.55;20.15;;;;;;;15.27;100.00;101881.09;10319816;28;20038;-66
2022/07/06 22:23:48;;;;;;;37.88;19.70;;;;;;;15.36;100.00;101884.25;10334511;28;20084;-66
2022/07/06 22:28:49;;;;;;;41.38;22.20;;;;;;;15.37;100.00;101869.28;10318498;28;20062;-66
2022/07/06 22:33:50;;;;;;;34.42;19.65;;;;;;;15.37;100.00;101872.06;10352019;28;20060;-65
2022/07/06 22:38:50;;;;;;;40.13;19.63;;;;;;;15.38;100.00;101870.97;10305220;28;20045;-65
2022/07/06 22:43:51;;;;;;;30.85;18.50;;;;;;;15.38;100.00;101861.78;10322862;28;20085;-66
2022/07/06 22:48:52;;;;;;;36.88;19.33;;;;;;;15.43;100.00;101859.06;10322420;28;20042;-66
2022/07/06 22:53:52;;;;;;;33.33;19.98;;;;;;;15.43;100.00;101846.03;10319581;28;20095;-67
2022/07/06 22:58:53;;;;;;;36.35;18.63;;;;;;;15.45;100.00;101846.59;10339614;28;20040;-66